Time;durP1;ratioP1;P1;durP2;ratioP2;P2;SDS_P1;SDS_P2;PMS_P1;PMS_P2;Temp;Humidity;BMP_temperature;BMP_pressure;BME280_temperature;BME280_humidity;BME280_pressure;Samples;Min_cycle;Max_cycle;Signal;HPM_P1;HPM_P2
2021/01/19 00:00:01;;;;;;;19.40;17.33;;;;;20.90;100597.00;;;;2087712;28;20244;-67
2021/01/19 00:01:02;;;;;;;17.17;15.37;;;;;20.90;100605.00;;;;2078677;28;20210;-67
2021/01/19 00:02:02;;;;;;;17.70;15.80;;;;;20.90;100592.00;;;;2078803;28;20217;-67
2021/01/19 00:03:02;;;;;;;18.50;16.33;;;;;20.80;100587.00;;;;2076068;28;20213;-67
2021/01/19 00:04:03;;;;;;;17.80;15.93;;;;;20.80;100586.00;;;;2067125;28;548013;-67
2021/01/19 00:05:03;;;;;;;18.57;16.40;;;;;20.80;100592.00;;;;2074738;28;20634;-67
2021/01/19 00:06:04;;;;;;;17.43;15.67;;;;;20.80;100580.00;;;;2068600;28;20684;-67
2021/01/19 00:07:05;;;;;;;17.42;15.57;;;;;20.80;100592.00;;;;2078529;28;20213;-67
2021/01/19 00:08:05;;;;;;;16.77;14.97;;;;;20.80;100587.00;;;;2086224;28;20235;-67
2021/01/19 00:09:05;;;;;;;17.40;15.47;;;;;20.80;100578.00;;;;2087240;28;20217;-67
2021/01/19 00:10:06;;;;;;;17.07;15.27;;;;;20.80;100592.00;;;;2087246;28;20273;-67
2021/01/19 00:11:06;;;;;;;18.63;15.37;;;;;20.80;100594.00;;;;2087245;28;20594;-67
2021/01/19 00:12:07;;;;;;;16.50;14.37;;;;;20.80;100595.00;;;;2087687;28;20236;-67
2021/01/19 00:13:07;;;;;;;15.87;14.17;;;;;20.80;100590.00;;;;2078866;28;20218;-67
2021/01/19 00:14:07;;;;;;;15.47;13.73;;;;;20.80;100583.00;;;;2086996;28;20210;-67
2021/01/19 00:15:08;;;;;;;16.37;13.77;;;;;20.80;100578.00;;;;2087909;28;20220;-67
2021/01/19 00:16:09;;;;;;;16.10;13.90;;;;;20.80;100576.00;;;;2088139;28;20216;-67
2021/01/19 00:17:09;;;;;;;15.87;13.47;;;;;20.80;100571.00;;;;2084942;28;20227;-67
2021/01/19 00:18:09;;;;;;;15.47;13.10;;;;;20.80;100569.00;;;;2083743;28;20217;-67
2021/01/19 00:19:10;;;;;;;15.03;13.10;;;;;20.80;100575.00;;;;2070797;28;20703;-67
2021/01/19 00:20:10;;;;;;;14.57;13.00;;;;;20.80;100568.00;;;;2071041;28;20651;-67
2021/01/19 00:21:11;;;;;;;15.00;12.63;;;;;20.80;100564.00;;;;2079023;28;20216;-67
2021/01/19 00:22:11;;;;;;;14.10;12.57;;;;;20.80;100577.00;;;;2075671;28;20221;-67
2021/01/19 00:23:12;;;;;;;14.37;11.80;;;;;20.80;100576.00;;;;2078779;28;20605;-67
2021/01/19 00:24:12;;;;;;;13.05;11.48;;;;;20.80;100573.00;;;;2086840;28;20251;-67
2021/01/19 00:25:13;;;;;;;12.20;10.90;;;;;20.80;100577.00;;;;2087008;28;20217;-67
2021/01/19 00:26:13;;;;;;;14.03;11.13;;;;;20.80;100564.00;;;;2087284;28;20247;-67
2021/01/19 00:27:13;;;;;;;13.50;11.87;;;;;20.80;100569.00;;;;2078834;28;20306;-67
2021/01/19 00:28:14;;;;;;;15.83;12.07;;;;;20.80;100563.00;;;;2078559;28;20218;-67
2021/01/19 00:29:14;;;;;;;12.93;10.47;;;;;20.70;100566.00;;;;2087518;28;20326;-67
2021/01/19 00:30:15;;;;;;;12.47;11.17;;;;;20.80;100570.00;;;;2087483;28;20220;-67
2021/01/19 00:31:15;;;;;;;11.97;10.77;;;;;20.70;100567.00;;;;2078444;28;20213;-67
2021/01/19 00:32:16;;;;;;;12.73;10.53;;;;;20.70;100557.00;;;;2075298;28;20228;-67
2021/01/19 00:33:16;;;;;;;11.77;10.57;;;;;20.70;100559.00;;;;2087009;28;20563;-67
2021/01/19 00:34:16;;;;;;;13.90;11.13;;;;;20.70;100555.00;;;;2087209;28;20220;-67
2021/01/19 00:35:17;;;;;;;13.63;10.33;;;;;20.70;100562.00;;;;2086985;28;20235;-67
2021/01/19 00:36:17;;;;;;;12.87;10.70;;;;;20.70;100563.00;;;;2087275;28;20215;-67
2021/01/19 00:37:17;;;;;;;14.10;9.90;;;;;20.70;100562.00;;;;2084156;28;20232;-67
2021/01/19 00:38:18;;;;;;;12.43;10.67;;;;;20.70;100553.00;;;;2087140;28;20212;-67
2021/01/19 00:39:18;;;;;;;13.70;10.90;;;;;20.70;100551.00;;;;2086964;28;20233;-67
2021/01/19 00:40:18;;;;;;;11.23;9.40;;;;;20.70;100549.00;;;;2086835;28;20220;-68
2021/01/19 00:41:19;;;;;;;11.63;10.20;;;;;20.70;100549.00;;;;2087552;28;20231;-67
2021/01/19 00:42:19;;;;;;;12.30;9.90;;;;;20.70;100550.00;;;;2085833;28;20223;-67
2021/01/19 00:43:20;;;;;;;12.17;10.17;;;;;20.70;100560.00;;;;2087158;28;20216;-68
2021/01/19 00:44:20;;;;;;;12.77;11.10;;;;;20.70;100543.00;;;;2078421;28;20231;-67
2021/01/19 00:45:20;;;;;;;10.87;9.33;;;;;20.70;100541.00;;;;2078794;28;20225;-67
2021/01/19 00:46:21;;;;;;;12.43;9.77;;;;;20.70;100538.00;;;;2087859;28;20209;-67
2021/01/19 00:47:21;;;;;;;11.20;9.93;;;;;20.70;100542.00;;;;2084479;28;20229;-67
2021/01/19 00:48:21;;;;;;;10.37;9.00;;;;;20.60;100544.00;;;;2087884;28;20216;-67
2021/01/19 00:49:22;;;;;;;11.20;10.03;;;;;20.60;100531.00;;;;2088034;28;20587;-67
2021/01/19 00:50:22;;;;;;;11.40;9.50;;;;;20.60;100534.00;;;;2087852;28;20670;-67
2021/01/19 00:51:23;;;;;;;10.23;9.03;;;;;20.70;100534.00;;;;2079016;28;20693;-67
2021/01/19 00:52:23;;;;;;;9.73;8.37;;;;;20.60;100540.00;;;;2070706;28;20273;-67
2021/01/19 00:53:23;;;;;;;11.10;9.10;;;;;20.60;100543.00;;;;2079042;28;20228;-67
2021/01/19 00:54:24;;;;;;;11.80;9.13;;;;;20.60;100540.00;;;;2088045;28;20565;-67
2021/01/19 00:55:24;;;;;;;9.67;8.70;;;;;20.60;100534.00;;;;2087634;28;20582;-67
2021/01/19 00:56:24;;;;;;;9.40;8.30;;;;;20.60;100523.00;;;;2086480;28;21058;-67
2021/01/19 00:57:25;;;;;;;11.50;9.07;;;;;20.60;100526.00;;;;2088022;28;20237;-67
2021/01/19 00:58:25;;;;;;;10.57;9.33;;;;;20.60;100524.00;;;;2087966;28;20218;-67
2021/01/19 00:59:25;;;;;;;9.50;7.73;;;;;20.60;100528.00;;;;2078968;28;20371;-67
2021/01/19 01:00:26;;;;;;;8.43;7.53;;;;;20.60;100522.00;;;;2079025;28;20221;-67
2021/01/19 01:01:26;;;;;;;10.10;9.00;;;;;20.60;100521.00;;;;2087694;28;20220;-67
2021/01/19 01:02:26;;;;;;;9.53;8.53;;;;;20.60;100516.00;;;;2078875;28;20217;-67
2021/01/19 01:03:29;;;;;;;9.73;7.97;;;;;20.60;100518.00;;;;2078902;28;20231;-67
2021/01/19 01:04:30;;;;;;;9.35;7.28;;;;;20.60;100510.00;;;;2087565;28;20608;-67
2021/01/19 01:05:30;;;;;;;8.80;7.83;;;;;20.60;100520.00;;;;2087697;28;20212;-67
2021/01/19 01:06:30;;;;;;;9.10;7.80;;;;;20.60;100519.00;;;;2087597;28;20240;-67
2021/01/19 01:07:43;;;;;;;8.87;7.73;;;;;20.60;100512.00;;;;2087723;28;20274;-67
2021/01/19 01:08:43;;;;;;;8.27;7.30;;;;;20.60;100508.00;;;;2075150;28;20313;-67
2021/01/19 01:09:44;;;;;;;8.23;7.30;;;;;20.60;100518.00;;;;2079588;28;20221;-67
2021/01/19 01:10:44;;;;;;;11.23;7.83;;;;;20.60;100506.00;;;;2087829;28;20247;-67
2021/01/19 01:11:44;;;;;;;11.50;7.77;;;;;20.60;100502.00;;;;2087819;28;20213;-67
2021/01/19 01:12:45;;;;;;;8.60;6.70;;;;;20.60;100508.00;;;;2087497;28;20262;-67
2021/01/19 01:13:45;;;;;;;8.27;7.17;;;;;20.60;100506.00;;;;2087742;28;20263;-67
2021/01/19 01:14:45;;;;;;;8.10;6.17;;;;;20.60;100497.00;;;;2087606;28;20587;-67
2021/01/19 01:15:46;;;;;;;8.47;6.70;;;;;20.60;100509.00;;;;2087084;28;20220;-67
2021/01/19 01:16:46;;;;;;;8.77;7.00;;;;;20.60;100492.00;;;;2087491;28;20721;-67
2021/01/19 01:17:47;;;;;;;9.07;7.70;;;;;20.60;100493.00;;;;2087673;28;20212;-66
2021/01/19 01:18:47;;;;;;;6.77;6.07;;;;;20.60;100488.00;;;;2087571;28;20212;-67
2021/01/19 01:19:47;;;;;;;8.67;7.03;;;;;20.60;100499.00;;;;2087474;28;20221;-67
2021/01/19 01:20:48;;;;;;;6.40;5.80;;;;;20.60;100497.00;;;;2085903;28;20215;-67
2021/01/19 01:21:48;;;;;;;7.03;5.93;;;;;20.60;100496.00;;;;2084911;28;20224;-67
2021/01/19 01:22:48;;;;;;;8.60;6.13;;;;;20.50;100495.00;;;;2087331;28;20228;-67
2021/01/19 01:23:49;;;;;;;8.70;7.00;;;;;20.50;100492.00;;;;2087646;28;20225;-67
2021/01/19 01:24:49;;;;;;;7.67;5.73;;;;;20.50;100488.00;;;;2087692;28;20221;-67
2021/01/19 01:25:49;;;;;;;8.17;6.63;;;;;20.60;100494.00;;;;2088080;28;20640;-67
2021/01/19 01:26:52;;;;;;;6.53;5.83;;;;;20.50;100486.00;;;;2089036;28;20223;-67
2021/01/19 01:27:53;;;;;;;6.65;5.90;;;;;20.50;100484.00;;;;2079778;28;20594;-67
2021/01/19 01:28:53;;;;;;;8.80;6.33;;;;;20.50;100485.00;;;;2080258;28;20201;-67
2021/01/19 01:29:53;;;;;;;6.90;6.20;;;;;20.50;100481.00;;;;2089200;28;20201;-67
2021/01/19 01:30:54;;;;;;;9.67;6.40;;;;;20.50;100479.00;;;;2089183;28;20220;-67
2021/01/19 01:31:54;;;;;;;6.70;6.00;;;;;20.50;100480.00;;;;2089161;28;20713;-67
2021/01/19 01:32:54;;;;;;;8.70;6.60;;;;;20.50;100481.00;;;;2088959;28;20718;-67
2021/01/19 01:33:55;;;;;;;7.23;5.87;;;;;20.50;100482.00;;;;2089204;28;20706;-67
2021/01/19 01:34:55;;;;;;;8.17;6.17;;;;;20.50;100479.00;;;;2089011;28;20294;-67
2021/01/19 01:35:55;;;;;;;5.93;5.37;;;;;20.50;100469.00;;;;2089089;28;20223;-67
2021/01/19 01:36:56;;;;;;;7.30;5.43;;;;;20.50;100479.00;;;;2088975;28;20220;-66
2021/01/19 01:37:56;;;;;;;8.03;5.70;;;;;20.50;100473.00;;;;2088897;28;20227;-67
2021/01/19 01:38:56;;;;;;;6.80;5.50;;;;;20.50;100471.00;;;;2089042;28;20265;-67
2021/01/19 01:39:57;;;;;;;8.00;6.00;;;;;20.50;100479.00;;;;2089020;28;20216;-67
2021/01/19 01:40:57;;;;;;;5.87;5.17;;;;;20.50;100469.00;;;;2089044;28;20236;-67
2021/01/19 01:41:57;;;;;;;6.70;5.33;;;;;20.50;100469.00;;;;2089074;28;20640;-67
2021/01/19 01:43:00;;;;;;;8.17;5.90;;;;;20.50;100470.00;;;;2088854;28;20226;-67
2021/01/19 01:44:01;;;;;;;6.47;5.13;;;;;20.50;100415.00;;;;2080195;28;20218;-67
2021/01/19 01:45:02;;;;;;;6.22;4.90;;;;;20.50;100464.00;;;;2072185;28;20220;-67
2021/01/19 01:46:03;;;;;;;5.68;4.47;;;;;20.50;100465.00;;;;2072134;28;20217;-67
2021/01/19 01:47:03;;;;;;;6.77;5.30;;;;;20.50;100462.00;;;;2080297;28;20209;-67
2021/01/19 01:48:04;;;;;;;6.50;5.03;;;;;20.50;100465.00;;;;2085020;28;20201;-67
2021/01/19 01:49:04;;;;;;;6.20;5.47;;;;;20.40;100466.00;;;;2071454;28;20221;-67
2021/01/19 01:50:05;;;;;;;5.73;5.00;;;;;20.50;100467.00;;;;2063803;28;20257;-67
2021/01/19 01:51:07;;;;;;;7.10;4.80;;;;;20.40;100468.00;;;;2080182;28;20212;-66
2021/01/19 01:52:07;;;;;;;6.70;4.75;;;;;20.40;100452.00;;;;2071810;28;20225;-67
2021/01/19 01:53:07;;;;;;;5.50;4.90;;;;;20.40;100449.00;;;;2071804;28;20284;-67
2021/01/19 01:54:08;;;;;;;7.07;5.30;;;;;20.40;100450.00;;;;2055997;28;20293;-67
2021/01/19 01:55:08;;;;;;;6.50;5.20;;;;;20.40;100447.00;;;;2063942;28;20209;-67
2021/01/19 01:56:10;;;;;;;7.00;4.80;;;;;20.40;100449.00;;;;2071965;28;20781;-67
2021/01/19 01:57:11;;;;;;;7.57;4.88;;;;;20.40;100449.00;;;;2080256;28;20451;-67
2021/01/19 01:58:11;;;;;;;5.30;4.60;;;;;20.40;100449.00;;;;2072282;28;20261;-67
2021/01/19 01:59:11;;;;;;;6.27;4.10;;;;;20.40;100449.00;;;;2080151;28;20220;-67
2021/01/19 02:00:12;;;;;;;5.03;4.10;;;;;20.40;100428.00;;;;2080067;28;20274;-67
2021/01/19 02:01:13;;;;;;;6.20;4.73;;;;;20.40;100444.00;;;;2071947;28;20233;-67
2021/01/19 02:02:13;;;;;;;6.57;4.70;;;;;20.40;100433.00;;;;2071816;28;21014;-67
2021/01/19 02:03:13;;;;;;;5.77;4.60;;;;;20.40;100439.00;;;;2080092;28;20233;-67
2021/01/19 02:04:14;;;;;;;6.07;4.40;;;;;20.40;100438.00;;;;2088609;28;20223;-67
2021/01/19 02:05:14;;;;;;;5.50;4.60;;;;;20.40;100435.00;;;;2079646;28;20233;-67
2021/01/19 02:06:17;;;;;;;4.57;4.00;;;;;20.40;100433.00;;;;2079752;28;20217;-67
2021/01/19 02:07:20;;;;;;;5.40;4.15;;;;;20.40;100423.00;;;;2088848;28;20220;-67
2021/01/19 02:08:46;;;;;;;6.10;4.00;;;;;20.40;100425.00;;;;2088780;28;20229;-67
2021/01/19 02:09:49;;;;;;;4.53;3.90;;;;;20.40;100403.00;;;;2088712;28;20246;-67
2021/01/19 02:10:55;;;;;;;7.20;4.60;;;;;20.40;100424.00;;;;2080054;28;20288;-68
2021/01/19 02:12:03;;;;;;;4.85;3.85;;;;;20.30;100414.00;;;;2080983;28;20272;-67
2021/01/19 02:13:11;;;;;;;4.97;3.97;;;;;20.40;100419.00;;;;2075927;28;20210;-67
2021/01/19 02:14:18;;;;;;;4.72;3.70;;;;;20.40;100417.00;;;;2069116;28;20202;-67
2021/01/19 02:15:20;;;;;;;5.80;4.28;;;;;20.40;100418.00;;;;2072630;28;20214;-67
2021/01/19 02:16:30;;;;;;;4.45;3.90;;;;;20.40;100406.00;;;;2072735;28;20694;-67
2021/01/19 02:17:41;;;;;;;5.32;4.00;;;;;20.40;100412.00;;;;2081168;28;20307;-67
2021/01/19 02:19:17;;;;;;;5.43;3.75;;;;;20.40;100414.00;;;;2080062;28;20756;-67
2021/01/19 02:20:32;;;;;;;5.93;3.78;;;;;20.40;100409.00;;;;2069548;28;20218;-67
2021/01/19 02:21:40;;;;;;;5.20;3.70;;;;;20.40;100399.00;;;;2082036;28;20220;-67
2021/01/19 02:22:54;;;;;;;5.45;3.97;;;;;20.40;100388.00;;;;2079684;28;20223;-67
2021/01/19 02:24:09;;;;;;;5.93;3.88;;;;;20.30;100396.00;;;;2072599;28;20225;-67
2021/01/19 02:25:19;;;;;;;6.93;3.80;;;;;20.30;100391.00;;;;2069409;28;20715;-66
2021/01/19 02:26:47;;;;;;;5.05;3.80;;;;;20.30;100390.00;;;;2081327;28;20237;-67
2021/01/19 02:28:08;;;;;;;4.32;3.45;;;;;20.30;100384.00;;;;2085858;28;20222;-67
2021/01/19 02:29:27;;;;;;;4.35;3.50;;;;;20.30;100380.00;;;;2071358;28;20213;-67
2021/01/19 02:30:39;;;;;;;7.53;3.70;;;;;20.30;100375.00;;;;2073923;28;20229;-67
2021/01/19 02:32:01;;;;;;;4.63;3.40;;;;;20.30;100371.00;;;;2081614;28;20622;-67
2021/01/19 02:33:22;;;;;;;4.15;3.15;;;;;20.30;100364.00;;;;2079336;28;20745;-67
2021/01/19 02:34:43;;;;;;;3.97;3.25;;;;;20.30;100347.00;;;;2076804;28;20713;-67
2021/01/19 02:35:48;;;;;;;3.72;3.08;;;;;20.30;100348.00;;;;2079700;28;20745;-67
2021/01/19 02:37:02;;;;;;;4.60;3.10;;;;;20.30;100355.00;;;;2071483;28;20352;-67
2021/01/19 02:38:26;;;;;;;4.55;2.92;;;;;20.30;100352.00;;;;2065418;28;20214;-67
2021/01/19 02:39:34;;;;;;;3.95;3.00;;;;;20.30;100342.00;;;;2054863;28;20374;-67
2021/01/19 02:40:35;;;;;;;3.42;2.85;;;;;20.30;100343.00;;;;2080642;28;20247;-67
2021/01/19 02:41:35;;;;;;;5.37;3.70;;;;;20.30;100347.00;;;;2088596;28;20239;-67
2021/01/19 02:42:53;;;;;;;4.70;3.57;;;;;20.30;100346.00;;;;2071127;28;20247;-67
2021/01/19 02:44:18;;;;;;;4.82;3.67;;;;;20.30;100333.00;;;;2074037;28;20627;-67
2021/01/19 02:45:18;;;;;;;3.53;3.08;;;;;20.30;100324.00;;;;2076584;28;20228;-67
2021/01/19 02:46:19;;;;;;;4.00;3.00;;;;;20.30;100333.00;;;;2071670;28;20277;-68
2021/01/19 02:47:19;;;;;;;4.53;2.97;;;;;20.30;100317.00;;;;2071667;28;20208;-68
2021/01/19 02:48:23;;;;;;;4.30;3.10;;;;;20.30;100319.00;;;;2079737;28;20220;-67
2021/01/19 02:49:23;;;;;;;2.90;2.70;;;;;20.30;100318.00;;;;2071726;28;20225;-67
2021/01/19 02:50:23;;;;;;;4.33;3.37;;;;;20.30;100317.00;;;;2071514;28;20592;-67
2021/01/19 02:51:24;;;;;;;3.03;2.73;;;;;20.30;100325.00;;;;2071621;28;20616;-67
2021/01/19 02:52:24;;;;;;;3.50;2.73;;;;;20.30;100305.00;;;;2071449;28;20228;-67
2021/01/19 02:53:25;;;;;;;4.37;2.93;;;;;20.30;100309.00;;;;2079628;28;20247;-68
2021/01/19 02:54:25;;;;;;;3.90;2.73;;;;;20.30;100316.00;;;;2071475;28;20217;-67
2021/01/19 02:55:26;;;;;;;3.57;2.40;;;;;20.30;100310.00;;;;2071440;28;20218;-67
2021/01/19 02:56:50;;;;;;;3.37;2.33;;;;;20.30;100301.00;;;;2071439;28;20286;-67
2021/01/19 02:58:03;;;;;;;4.10;2.72;;;;;20.30;100291.00;;;;2075394;28;20593;-66
2021/01/19 02:59:08;;;;;;;4.45;2.42;;;;;20.30;100296.00;;;;2079606;28;20208;-67
2021/01/19 03:00:12;;;;;;;3.00;2.65;;;;;20.20;100288.00;;;;2056729;28;20215;-67
2021/01/19 03:01:22;;;;;;;3.35;2.38;;;;;20.30;100288.00;;;;2072251;28;20227;-67
2021/01/19 03:02:22;;;;;;;3.10;2.65;;;;;20.20;100278.00;;;;2071369;28;20268;-67
2021/01/19 03:03:23;;;;;;;3.67;2.40;;;;;20.20;100283.00;;;;2063670;28;20334;-67
2021/01/19 03:04:23;;;;;;;2.57;2.37;;;;;20.20;100287.00;;;;2062755;28;20272;-67
2021/01/19 03:05:23;;;;;;;4.80;2.40;;;;;20.20;100282.00;;;;2071459;28;20664;-67
2021/01/19 03:06:24;;;;;;;3.00;2.43;;;;;20.20;100274.00;;;;2070818;28;20672;-68
2021/01/19 03:07:25;;;;;;;4.90;3.17;;;;;20.20;100277.00;;;;2063067;28;20218;-67
2021/01/19 03:08:25;;;;;;;2.65;2.10;;;;;20.20;100278.00;;;;2071313;28;20226;-67
2021/01/19 03:09:25;;;;;;;3.67;2.80;;;;;20.20;100266.00;;;;2071395;28;20678;-67
2021/01/19 03:10:26;;;;;;;4.40;2.60;;;;;20.20;100269.00;;;;2071445;28;20663;-67
2021/01/19 03:11:26;;;;;;;2.83;2.53;;;;;20.20;100270.00;;;;2079487;28;20220;-67
2021/01/19 03:12:27;;;;;;;3.30;2.43;;;;;20.20;100272.00;;;;2071215;28;20225;-67
2021/01/19 03:13:27;;;;;;;3.53;1.93;;;;;20.20;100268.00;;;;2065827;28;20228;-67
2021/01/19 03:14:28;;;;;;;3.50;2.13;;;;;20.20;100257.00;;;;2066064;28;20216;-67
2021/01/19 03:15:28;;;;;;;3.07;2.10;;;;;20.20;100256.00;;;;2071334;28;20272;-67
2021/01/19 03:16:29;;;;;;;3.90;2.17;;;;;20.20;100257.00;;;;2074273;28;20299;-67
2021/01/19 03:17:29;;;;;;;2.47;2.27;;;;;20.20;100251.00;;;;2088401;28;20689;-67
2021/01/19 03:18:29;;;;;;;2.87;2.30;;;;;20.20;100259.00;;;;2088008;28;20211;-67
2021/01/19 03:19:30;;;;;;;2.97;1.90;;;;;20.20;100255.00;;;;2079516;28;20220;-67
2021/01/19 03:20:30;;;;;;;4.10;2.13;;;;;20.20;100251.00;;;;2068078;28;20236;-67
2021/01/19 03:21:31;;;;;;;3.43;2.13;;;;;20.20;100248.00;;;;2065146;28;20360;-67
2021/01/19 03:22:31;;;;;;;2.60;2.40;;;;;20.20;100243.00;;;;2078987;28;20622;-67
2021/01/19 03:23:32;;;;;;;3.13;2.43;;;;;20.20;100233.00;;;;2079131;28;20340;-68
2021/01/19 03:24:32;;;;;;;3.50;2.07;;;;;20.20;100235.00;;;;2071395;28;20293;-66
2021/01/19 03:25:33;;;;;;;2.80;1.97;;;;;20.20;100235.00;;;;2079453;28;20546;-67
2021/01/19 03:26:33;;;;;;;3.87;2.37;;;;;20.20;100226.00;;;;2088221;28;20675;-67
2021/01/19 03:27:34;;;;;;;2.87;2.20;;;;;20.20;100228.00;;;;2088236;28;20240;-67
2021/01/19 03:28:34;;;;;;;3.40;2.00;;;;;20.20;100234.00;;;;2078577;28;20217;-67
2021/01/19 03:29:35;;;;;;;2.80;1.87;;;;;20.20;100218.00;;;;2079220;28;20359;-67
2021/01/19 03:30:35;;;;;;;2.47;2.00;;;;;20.20;100225.00;;;;2079415;28;20586;-67
2021/01/19 03:31:36;;;;;;;3.20;1.90;;;;;20.20;100226.00;;;;2071270;28;20269;-67
2021/01/19 03:32:36;;;;;;;3.57;2.10;;;;;20.10;100231.00;;;;2079115;28;20217;-67
2021/01/19 03:33:36;;;;;;;4.40;2.40;;;;;20.20;100213.00;;;;2088142;28;20211;-67
2021/01/19 03:34:37;;;;;;;3.00;2.10;;;;;20.20;100218.00;;;;2088256;28;20238;-67
2021/01/19 03:35:39;;;;;;;3.10;1.90;;;;;20.20;100212.00;;;;2088089;28;20212;-67
2021/01/19 03:36:39;;;;;;;3.20;2.20;;;;;20.10;100216.00;;;;2088169;28;20211;-67
2021/01/19 03:37:39;;;;;;;3.23;1.80;;;;;20.20;100218.00;;;;2079379;28;20209;-67
2021/01/19 03:38:40;;;;;;;2.50;2.30;;;;;20.10;100211.00;;;;2079438;28;20243;-67
2021/01/19 03:39:40;;;;;;;2.37;2.13;;;;;20.10;100206.00;;;;2088144;28;20725;-67
2021/01/19 03:40:40;;;;;;;3.00;2.00;;;;;20.10;100201.00;;;;2088149;28;20639;-67
2021/01/19 03:41:41;;;;;;;2.90;2.00;;;;;20.10;100215.00;;;;2087962;28;20953;-67
2021/01/19 03:42:41;;;;;;;3.40;1.80;;;;;20.10;100199.00;;;;2086971;28;20546;-67
2021/01/19 03:43:41;;;;;;;2.30;2.00;;;;;20.10;100194.00;;;;2088141;28;20274;-67
2021/01/19 03:44:42;;;;;;;3.27;2.10;;;;;20.10;100189.00;;;;2088077;28;20628;-67
2021/01/19 03:45:42;;;;;;;3.00;2.00;;;;;20.10;100198.00;;;;2088171;28;20583;-67
2021/01/19 03:46:42;;;;;;;2.30;1.70;;;;;20.10;100192.00;;;;2087933;28;20238;-68
2021/01/19 03:47:43;;;;;;;4.90;2.00;;;;;20.10;100183.00;;;;2088049;28;20238;-67
2021/01/19 03:48:43;;;;;;;2.60;1.90;;;;;20.20;100186.00;;;;2087928;28;20225;-67
2021/01/19 03:49:43;;;;;;;2.90;1.93;;;;;20.10;100181.00;;;;2079311;28;20326;-67
2021/01/19 03:50:44;;;;;;;2.67;1.90;;;;;20.10;100178.00;;;;2079391;28;20200;-67
2021/01/19 03:51:44;;;;;;;3.70;2.10;;;;;20.10;100179.00;;;;2087991;28;20224;-67
2021/01/19 03:52:44;;;;;;;3.20;1.90;;;;;20.10;100176.00;;;;2087885;28;20222;-67
2021/01/19 03:53:45;;;;;;;2.20;1.87;;;;;20.10;100174.00;;;;2084506;28;20217;-67
2021/01/19 03:54:45;;;;;;;2.17;1.97;;;;;20.10;100168.00;;;;2087759;28;20246;-67
2021/01/19 03:55:45;;;;;;;2.70;1.90;;;;;20.10;100174.00;;;;2088118;28;20290;-68
2021/01/19 03:56:47;;;;;;;3.03;1.83;;;;;20.10;100160.00;;;;2079159;28;20212;-68
2021/01/19 03:57:47;;;;;;;2.85;1.80;;;;;20.10;100160.00;;;;2079388;28;20713;-68
2021/01/19 03:58:47;;;;;;;3.20;2.30;;;;;20.10;100159.00;;;;2088097;28;20224;-68
2021/01/19 03:59:48;;;;;;;2.83;1.80;;;;;20.10;100153.00;;;;2078968;28;20216;-67
2021/01/19 04:00:48;;;;;;;2.10;1.70;;;;;20.10;100147.00;;;;2079347;28;20271;-67
2021/01/19 04:01:49;;;;;;;2.50;2.30;;;;;20.10;100153.00;;;;2087959;28;20239;-67
2021/01/19 04:02:49;;;;;;;3.07;1.97;;;;;20.10;100141.00;;;;2087760;28;20224;-67
2021/01/19 04:03:50;;;;;;;2.80;1.90;;;;;20.10;100141.00;;;;2087908;28;20876;-67
2021/01/19 04:04:52;;;;;;;1.83;1.73;;;;;20.10;100137.00;;;;2077739;28;20251;-67
2021/01/19 04:05:53;;;;;;;2.63;1.60;;;;;20.10;100132.00;;;;2087539;28;20301;-67
2021/01/19 04:06:53;;;;;;;1.97;1.70;;;;;20.10;100128.00;;;;2087721;28;20643;-67
2021/01/19 04:07:54;;;;;;;2.60;1.70;;;;;20.10;100117.00;;;;2088003;28;20215;-67
2021/01/19 04:08:54;;;;;;;3.53;1.60;;;;;20.10;100130.00;;;;2088124;28;20215;-68
2021/01/19 04:09:54;;;;;;;2.63;2.03;;;;;20.10;100125.00;;;;2088184;28;20341;-67
2021/01/19 04:10:54;;;;;;;3.00;1.80;;;;;20.10;100121.00;;;;2088130;28;20212;-67
2021/01/19 04:11:55;;;;;;;3.33;1.83;;;;;20.10;100126.00;;;;2079344;28;20216;-67
2021/01/19 04:12:55;;;;;;;4.07;1.60;;;;;20.00;100122.00;;;;2076761;28;24845;-67
2021/01/19 04:13:56;;;;;;;3.20;1.90;;;;;20.00;100120.00;;;;2086314;28;20219;-67
2021/01/19 04:14:56;;;;;;;2.93;1.53;;;;;20.00;100097.00;;;;2087430;28;20233;-67
2021/01/19 04:15:56;;;;;;;4.10;1.80;;;;;20.00;100104.00;;;;2088028;28;20766;-67
2021/01/19 04:16:57;;;;;;;3.30;1.87;;;;;20.00;100098.00;;;;2078885;28;20598;-67
2021/01/19 04:17:57;;;;;;;3.17;1.80;;;;;20.00;100106.00;;;;2079090;28;20216;-67
2021/01/19 04:18:57;;;;;;;2.60;2.17;;;;;20.00;100107.00;;;;2087950;28;20221;-67
2021/01/19 04:19:58;;;;;;;2.57;1.67;;;;;20.00;100102.00;;;;2087883;28;20242;-67
2021/01/19 04:20:58;;;;;;;2.90;2.00;;;;;20.10;100107.00;;;;2079220;28;20220;-66
2021/01/19 04:21:58;;;;;;;2.50;1.80;;;;;20.10;100101.00;;;;2079388;28;20223;-67
2021/01/19 04:22:59;;;;;;;2.90;1.50;;;;;20.00;100098.00;;;;2087814;28;20220;-67
2021/01/19 04:23:59;;;;;;;3.30;1.50;;;;;20.00;100102.00;;;;2088117;28;20221;-67
2021/01/19 04:25:00;;;;;;;2.63;1.47;;;;;20.00;100095.00;;;;2087997;28;20222;-67
2021/01/19 04:26:00;;;;;;;4.13;2.20;;;;;20.00;100086.00;;;;2079154;28;20301;-67
2021/01/19 04:27:00;;;;;;;2.60;1.53;;;;;20.00;100093.00;;;;2071078;28;20217;-67
2021/01/19 04:28:01;;;;;;;2.50;1.47;;;;;20.00;100067.00;;;;2078964;28;20226;-67
2021/01/19 04:29:01;;;;;;;2.90;1.60;;;;;20.00;100080.00;;;;2087994;28;20214;-68
2021/01/19 04:30:07;;;;;;;2.23;1.60;;;;;20.00;100083.00;;;;2079128;28;20240;-67
2021/01/19 04:31:07;;;;;;;2.40;1.60;;;;;20.00;100077.00;;;;2063452;28;20771;-67
2021/01/19 04:32:08;;;;;;;2.40;1.60;;;;;20.00;100075.00;;;;2071662;28;20232;-67
2021/01/19 04:33:09;;;;;;;1.97;1.33;;;;;20.00;100070.00;;;;2087242;28;20232;-67
2021/01/19 04:34:09;;;;;;;2.63;1.30;;;;;20.00;100068.00;;;;2078837;28;20797;-67
2021/01/19 04:35:10;;;;;;;2.60;1.60;;;;;20.00;100064.00;;;;2070092;28;20843;-67
2021/01/19 04:36:10;;;;;;;2.43;1.60;;;;;20.00;100057.00;;;;2078546;28;20636;-67
2021/01/19 04:37:10;;;;;;;3.10;1.50;;;;;20.00;100067.00;;;;2087578;28;20724;-67
2021/01/19 04:38:11;;;;;;;2.50;1.90;;;;;20.00;100065.00;;;;2087740;28;20208;-67
2021/01/19 04:39:11;;;;;;;4.03;1.60;;;;;20.00;100061.00;;;;2079073;28;20214;-67
2021/01/19 04:40:11;;;;;;;2.27;1.50;;;;;20.00;100054.00;;;;2079143;28;20213;-67
2021/01/19 04:41:12;;;;;;;2.63;1.70;;;;;20.00;100046.00;;;;2078704;28;20635;-67
2021/01/19 04:42:13;;;;;;;3.50;1.83;;;;;20.00;100044.00;;;;2070823;28;20221;-67
2021/01/19 04:43:15;;;;;;;2.30;1.70;;;;;20.00;100052.00;;;;2062680;28;20274;-67
2021/01/19 04:44:15;;;;;;;1.60;1.40;;;;;20.00;100038.00;;;;2063142;28;20230;-67
2021/01/19 04:45:16;;;;;;;1.77;1.47;;;;;20.00;100035.00;;;;2070799;28;20295;-67
2021/01/19 04:46:17;;;;;;;2.60;1.70;;;;;20.00;100032.00;;;;2070889;28;20231;-67
2021/01/19 04:47:17;;;;;;;2.43;1.60;;;;;20.00;100038.00;;;;2070390;28;20248;-67
2021/01/19 04:48:18;;;;;;;2.30;1.40;;;;;20.00;100041.00;;;;2078816;28;20220;-67
2021/01/19 04:49:18;;;;;;;2.23;1.63;;;;;20.00;100021.00;;;;2078813;28;20250;-67
2021/01/19 04:50:19;;;;;;;2.27;1.60;;;;;20.00;100035.00;;;;2070847;28;21028;-66
2021/01/19 04:51:23;;;;;;;4.10;2.10;;;;;20.00;100034.00;;;;2078901;28;20211;-67
2021/01/19 04:52:23;;;;;;;5.22;2.10;;;;;20.00;100021.00;;;;2078944;28;20212;-68
2021/01/19 04:53:25;;;;;;;4.20;1.63;;;;;20.00;100030.00;;;;2070569;28;20215;-67
2021/01/19 04:54:25;;;;;;;2.38;1.60;;;;;20.00;100022.00;;;;2079092;28;20220;-67
2021/01/19 04:55:26;;;;;;;3.47;1.77;;;;;20.00;100025.00;;;;2078938;28;20549;-67
2021/01/19 04:56:27;;;;;;;3.03;1.73;;;;;20.00;100020.00;;;;2070857;28;20221;-67
2021/01/19 04:57:31;;;;;;;2.38;1.45;;;;;19.90;100009.00;;;;2078964;28;20468;-67
2021/01/19 04:58:31;;;;;;;2.75;1.67;;;;;20.00;100006.00;;;;2087904;28;20219;-67
2021/01/19 04:59:37;;;;;;;3.23;1.50;;;;;20.00;100014.00;;;;2070948;28;20914;-67
2021/01/19 05:00:38;;;;;;;1.77;1.40;;;;;20.00;99995.00;;;;2072785;28;20224;-67
2021/01/19 05:01:44;;;;;;;2.23;1.53;;;;;19.90;99999.00;;;;2081199;28;20230;-67
2021/01/19 05:02:49;;;;;;;2.42;1.40;;;;;19.90;99990.00;;;;2080225;28;20262;-67
2021/01/19 05:03:57;;;;;;;2.45;1.80;;;;;19.90;99989.00;;;;2081122;28;20216;-67
2021/01/19 05:05:14;;;;;;;5.07;1.77;;;;;19.90;99998.00;;;;2080339;28;20218;-67
2021/01/19 05:06:17;;;;;;;2.92;1.63;;;;;19.90;100003.00;;;;2061552;28;20309;-67